Hlavní strana
METAR-TAF:

METAR-TAF

Letiště :

Newnan-Coweta County Airport

Newnan, Georgie, Spojené státy americké

zeměpisná šířka: 33-18-44N, zeměpisná délka: 084-46-13W, výška: 296 m

Aktuální stav počasí

Zpráva byla vytvořena před 19 minutami, v 01:55 UTC
Jihojihozápadní vítr 3 kt
Teplota 15°C
Vlhkost vzduchu 94%
Tlak 1020 hPa
Viditelnost: 16.1 km
Polojasno ve výšce 2300 ft
Oblačno až skoro zataženo ve výšce 4700 ft
Zataženo ve výšce 5000 ft

METAR: KCCO 190155Z AUTO 21003KT 10SM SCT023 BKN047 OVC050 15/14 A3011 RMK AO2 T01450139

Čas: 21:14 (02:14 UTC)


TAF: chybějící

Stav a předpovědi počasí z více než 4 000 letišť (zprávy METAR a TAF).

Červené a žluté tečky na mapě představují dostupné meteorologické stanice.

Když kurzor umístíte na tečku, zobrazí se název stanice.

Pak kliknutím zobrazíte stav a předpověď počasí.

Chcete-li změnit mapu, kliknutím na zelené tlačítko se znaménkem +mapu přiblížíte, kliknutím na zelené tlačítko se znaménkem – mapu oddálíte a kliknutím na zelené šipky přejdete na sousední mapy.


METAR-TAF: